sensor_id;sensor_type;location;lat;lon;timestamp;P1;durP1;ratioP1;P2;durP2;ratioP2
15693;SDS011;7947;48.834;9.132;2022-10-23T00:02:27;5.22;;;1.88;;
15693;SDS011;7947;48.834;9.132;2022-10-23T00:05:32;1.50;;;1.40;;
15693;SDS011;7947;48.834;9.132;2022-10-23T00:08:35;3.58;;;1.77;;
15693;SDS011;7947;48.834;9.132;2022-10-23T00:11:38;5.75;;;1.88;;
15693;SDS011;7947;48.834;9.132;2022-10-23T00:14:41;1.77;;;1.50;;
15693;SDS011;7947;48.834;9.132;2022-10-23T00:17:44;2.75;;;1.85;;
15693;SDS011;7947;48.834;9.132;2022-10-23T00:20:49;3.05;;;1.95;;
15693;SDS011;7947;48.834;9.132;2022-10-23T00:23:52;2.33;;;1.73;;
15693;SDS011;7947;48.834;9.132;2022-10-23T00:26:55;2.38;;;1.67;;
15693;SDS011;7947;48.834;9.132;2022-10-23T00:29:58;5.15;;;1.92;;
15693;SDS011;7947;48.834;9.132;2022-10-23T00:33:01;2.90;;;1.83;;
15693;SDS011;7947;48.834;9.132;2022-10-23T00:36:07;3.53;;;1.73;;
15693;SDS011;7947;48.834;9.132;2022-10-23T00:39:12;2.72;;;1.83;;
15693;SDS011;7947;48.834;9.132;2022-10-23T00:42:16;2.90;;;1.77;;
15693;SDS011;7947;48.834;9.132;2022-10-23T00:45:21;3.35;;;1.92;;
15693;SDS011;7947;48.834;9.132;2022-10-23T00:48:26;2.40;;;1.73;;
15693;SDS011;7947;48.834;9.132;2022-10-23T00:51:32;3.90;;;2.33;;
15693;SDS011;7947;48.834;9.132;2022-10-23T00:54:40;2.23;;;1.83;;
15693;SDS011;7947;48.834;9.132;2022-10-23T00:57:44;4.03;;;2.28;;
15693;SDS011;7947;48.834;9.132;2022-10-23T01:00:50;5.38;;;2.38;;
15693;SDS011;7947;48.834;9.132;2022-10-23T01:03:54;9.85;;;2.35;;
15693;SDS011;7947;48.834;9.132;2022-10-23T01:07:01;5.10;;;2.80;;
15693;SDS011;7947;48.834;9.132;2022-10-23T01:10:10;4.30;;;2.70;;
15693;SDS011;7947;48.834;9.132;2022-10-23T01:13:19;5.93;;;2.50;;
15693;SDS011;7947;48.834;9.132;2022-10-23T01:16:31;3.45;;;2.47;;
15693;SDS011;7947;48.834;9.132;2022-10-23T01:19:45;3.08;;;2.20;;
15693;SDS011;7947;48.834;9.132;2022-10-23T01:26:39;5.33;;;2.40;;
15693;SDS011;7947;48.834;9.132;2022-10-23T01:29:53;3.70;;;2.63;;
15693;SDS011;7947;48.834;9.132;2022-10-23T01:33:04;7.90;;;2.40;;
15693;SDS011;7947;48.834;9.132;2022-10-23T01:36:10;5.73;;;3.00;;
15693;SDS011;7947;48.834;9.132;2022-10-23T01:39:17;5.50;;;2.40;;
15693;SDS011;7947;48.834;9.132;2022-10-23T01:42:24;3.07;;;2.40;;
15693;SDS011;7947;48.834;9.132;2022-10-23T01:45:33;4.40;;;2.90;;
15693;SDS011;7947;48.834;9.132;2022-10-23T01:48:45;2.47;;;2.27;;
15693;SDS011;7947;48.834;9.132;2022-10-23T01:51:54;4.73;;;2.47;;
15693;SDS011;7947;48.834;9.132;2022-10-23T01:55:00;5.23;;;2.50;;
15693;SDS011;7947;48.834;9.132;2022-10-23T01:58:03;7.95;;;2.78;;
15693;SDS011;7947;48.834;9.132;2022-10-23T02:01:10;4.53;;;2.60;;
15693;SDS011;7947;48.834;9.132;2022-10-23T02:04:17;5.27;;;3.10;;
15693;SDS011;7947;48.834;9.132;2022-10-23T02:07:24;4.40;;;3.27;;
15693;SDS011;7947;48.834;9.132;2022-10-23T02:10:29;6.33;;;2.87;;
15693;SDS011;7947;48.834;9.132;2022-10-23T02:13:37;3.63;;;2.42;;
15693;SDS011;7947;48.834;9.132;2022-10-23T02:16:46;3.38;;;2.55;;
15693;SDS011;7947;48.834;9.132;2022-10-23T02:19:55;2.97;;;2.25;;
15693;SDS011;7947;48.834;9.132;2022-10-23T02:23:04;3.08;;;2.33;;
15693;SDS011;7947;48.834;9.132;2022-10-23T02:26:13;3.80;;;2.90;;
15693;SDS011;7947;48.834;9.132;2022-10-23T02:29:20;3.95;;;2.90;;
15693;SDS011;7947;48.834;9.132;2022-10-23T02:32:30;3.85;;;2.75;;
15693;SDS011;7947;48.834;9.132;2022-10-23T02:35:35;3.70;;;2.10;;
15693;SDS011;7947;48.834;9.132;2022-10-23T02:38:39;2.38;;;2.10;;
15693;SDS011;7947;48.834;9.132;2022-10-23T02:41:44;4.53;;;2.60;;
15693;SDS011;7947;48.834;9.132;2022-10-23T02:44:54;4.53;;;2.83;;
15693;SDS011;7947;48.834;9.132;2022-10-23T02:48:05;3.00;;;2.20;;
15693;SDS011;7947;48.834;9.132;2022-10-23T02:51:14;4.20;;;2.60;;
15693;SDS011;7947;48.834;9.132;2022-10-23T02:54:26;4.07;;;2.63;;
15693;SDS011;7947;48.834;9.132;2022-10-23T02:57:40;3.70;;;2.45;;
15693;SDS011;7947;48.834;9.132;2022-10-23T03:00:48;5.78;;;2.65;;
15693;SDS011;7947;48.834;9.132;2022-10-23T03:03:58;3.65;;;2.28;;
15693;SDS011;7947;48.834;9.132;2022-10-23T03:07:04;5.45;;;3.17;;
15693;SDS011;7947;48.834;9.132;2022-10-23T03:10:11;4.53;;;2.95;;
15693;SDS011;7947;48.834;9.132;2022-10-23T03:13:15;3.55;;;2.40;;
15693;SDS011;7947;48.834;9.132;2022-10-23T03:16:18;4.78;;;2.78;;
15693;SDS011;7947;48.834;9.132;2022-10-23T03:19:22;5.20;;;2.55;;
15693;SDS011;7947;48.834;9.132;2022-10-23T03:22:25;3.55;;;2.38;;
15693;SDS011;7947;48.834;9.132;2022-10-23T03:25:28;2.40;;;2.05;;
15693;SDS011;7947;48.834;9.132;2022-10-23T03:28:31;3.25;;;2.30;;
15693;SDS011;7947;48.834;9.132;2022-10-23T03:31:35;3.22;;;1.92;;
15693;SDS011;7947;48.834;9.132;2022-10-23T03:34:39;2.50;;;2.22;;
15693;SDS011;7947;48.834;9.132;2022-10-23T03:37:42;3.67;;;2.08;;
15693;SDS011;7947;48.834;9.132;2022-10-23T03:40:45;2.95;;;2.10;;
15693;SDS011;7947;48.834;9.132;2022-10-23T03:43:48;2.90;;;2.25;;
15693;SDS011;7947;48.834;9.132;2022-10-23T03:46:51;2.92;;;2.30;;
15693;SDS011;7947;48.834;9.132;2022-10-23T03:49:55;6.55;;;2.28;;
15693;SDS011;7947;48.834;9.132;2022-10-23T03:52:58;3.93;;;2.50;;
15693;SDS011;7947;48.834;9.132;2022-10-23T03:56:01;5.47;;;2.38;;
15693;SDS011;7947;48.834;9.132;2022-10-23T03:59:04;2.53;;;2.05;;
15693;SDS011;7947;48.834;9.132;2022-10-23T04:02:07;2.60;;;2.05;;
15693;SDS011;7947;48.834;9.132;2022-10-23T04:05:12;2.97;;;2.17;;
15693;SDS011;7947;48.834;9.132;2022-10-23T04:08:15;2.83;;;2.00;;
15693;SDS011;7947;48.834;9.132;2022-10-23T04:11:20;3.00;;;1.90;;
15693;SDS011;7947;48.834;9.132;2022-10-23T04:14:24;2.63;;;2.00;;
15693;SDS011;7947;48.834;9.132;2022-10-23T04:17:27;2.97;;;2.40;;
15693;SDS011;7947;48.834;9.132;2022-10-23T04:20:31;4.22;;;2.15;;
15693;SDS011;7947;48.834;9.132;2022-10-23T04:23:34;4.13;;;2.00;;
15693;SDS011;7947;48.834;9.132;2022-10-23T04:26:40;2.88;;;1.88;;
15693;SDS011;7947;48.834;9.132;2022-10-23T04:29:44;2.33;;;1.65;;
15693;SDS011;7947;48.834;9.132;2022-10-23T04:32:48;2.53;;;1.90;;
15693;SDS011;7947;48.834;9.132;2022-10-23T04:35:53;2.72;;;2.10;;
15693;SDS011;7947;48.834;9.132;2022-10-23T04:38:56;3.50;;;1.70;;
15693;SDS011;7947;48.834;9.132;2022-10-23T04:41:59;2.10;;;1.90;;
15693;SDS011;7947;48.834;9.132;2022-10-23T04:45:02;3.63;;;2.28;;
15693;SDS011;7947;48.834;9.132;2022-10-23T04:48:08;3.30;;;1.95;;
15693;SDS011;7947;48.834;9.132;2022-10-23T04:51:13;2.28;;;1.73;;
15693;SDS011;7947;48.834;9.132;2022-10-23T04:54:16;3.67;;;2.10;;
15693;SDS011;7947;48.834;9.132;2022-10-23T04:57:19;1.73;;;1.63;;
15693;SDS011;7947;48.834;9.132;2022-10-23T05:00:22;2.83;;;2.10;;
15693;SDS011;7947;48.834;9.132;2022-10-23T05:03:25;2.40;;;1.83;;
15693;SDS011;7947;48.834;9.132;2022-10-23T05:06:30;6.85;;;2.40;;
15693;SDS011;7947;48.834;9.132;2022-10-23T05:09:33;3.08;;;2.10;;
15693;SDS011;7947;48.834;9.132;2022-10-23T05:12:36;2.80;;;2.25;;
15693;SDS011;7947;48.834;9.132;2022-10-23T05:15:39;2.78;;;2.17;;
15693;SDS011;7947;48.834;9.132;2022-10-23T05:18:48;2.90;;;2.58;;
15693;SDS011;7947;48.834;9.132;2022-10-23T05:21:53;3.88;;;2.75;;
15693;SDS011;7947;48.834;9.132;2022-10-23T05:24:57;2.90;;;2.25;;
15693;SDS011;7947;48.834;9.132;2022-10-23T05:28:02;2.72;;;2.17;;
15693;SDS011;7947;48.834;9.132;2022-10-23T05:31:05;3.20;;;1.80;;
15693;SDS011;7947;48.834;9.132;2022-10-23T05:34:08;1.98;;;1.58;;
15693;SDS011;7947;48.834;9.132;2022-10-23T05:37:15;4.68;;;1.80;;
15693;SDS011;7947;48.834;9.132;2022-10-23T05:40:20;2.05;;;1.83;;
15693;SDS011;7947;48.834;9.132;2022-10-23T05:43:24;1.60;;;1.48;;
15693;SDS011;7947;48.834;9.132;2022-10-23T05:46:27;2.97;;;2.10;;
15693;SDS011;7947;48.834;9.132;2022-10-23T05:49:30;3.88;;;2.33;;
15693;SDS011;7947;48.834;9.132;2022-10-23T05:52:34;3.03;;;1.90;;
15693;SDS011;7947;48.834;9.132;2022-10-23T05:55:37;3.03;;;1.60;;
15693;SDS011;7947;48.834;9.132;2022-10-23T05:58:40;2.85;;;1.80;;
15693;SDS011;7947;48.834;9.132;2022-10-23T06:01:43;3.90;;;1.80;;
15693;SDS011;7947;48.834;9.132;2022-10-23T06:04:46;6.97;;;1.83;;
15693;SDS011;7947;48.834;9.132;2022-10-23T06:07:51;4.30;;;2.10;;
15693;SDS011;7947;48.834;9.132;2022-10-23T06:10:54;5.07;;;2.22;;
15693;SDS011;7947;48.834;9.132;2022-10-23T06:13:57;3.50;;;2.15;;
15693;SDS011;7947;48.834;9.132;2022-10-23T06:17:01;2.20;;;1.58;;
15693;SDS011;7947;48.834;9.132;2022-10-23T06:20:04;3.70;;;3.03;;
15693;SDS011;7947;48.834;9.132;2022-10-23T06:23:09;3.35;;;2.10;;
15693;SDS011;7947;48.834;9.132;2022-10-23T06:26:13;2.92;;;2.35;;
15693;SDS011;7947;48.834;9.132;2022-10-23T06:29:18;7.55;;;2.47;;
15693;SDS011;7947;48.834;9.132;2022-10-23T06:32:21;3.60;;;2.20;;
15693;SDS011;7947;48.834;9.132;2022-10-23T06:35:24;3.03;;;1.95;;
15693;SDS011;7947;48.834;9.132;2022-10-23T06:38:28;4.00;;;2.25;;
15693;SDS011;7947;48.834;9.132;2022-10-23T06:41:36;3.30;;;2.40;;
15693;SDS011;7947;48.834;9.132;2022-10-23T06:44:42;7.85;;;2.13;;
15693;SDS011;7947;48.834;9.132;2022-10-23T06:47:44;3.80;;;2.15;;
15693;SDS011;7947;48.834;9.132;2022-10-23T06:50:47;2.58;;;2.05;;
15693;SDS011;7947;48.834;9.132;2022-10-23T06:53:52;4.43;;;2.42;;
15693;SDS011;7947;48.834;9.132;2022-10-23T06:56:54;2.35;;;2.10;;
15693;SDS011;7947;48.834;9.132;2022-10-23T06:59:57;2.55;;;1.95;;
15693;SDS011;7947;48.834;9.132;2022-10-23T07:03:00;2.67;;;1.77;;
15693;SDS011;7947;48.834;9.132;2022-10-23T07:06:04;2.88;;;1.77;;
15693;SDS011;7947;48.834;9.132;2022-10-23T07:09:12;3.13;;;1.77;;
15693;SDS011;7947;48.834;9.132;2022-10-23T07:12:14;3.42;;;1.83;;
15693;SDS011;7947;48.834;9.132;2022-10-23T07:15:17;1.90;;;1.75;;
15693;SDS011;7947;48.834;9.132;2022-10-23T07:18:21;2.88;;;1.85;;
15693;SDS011;7947;48.834;9.132;2022-10-23T07:21:26;4.05;;;1.80;;
15693;SDS011;7947;48.834;9.132;2022-10-23T07:24:32;2.90;;;1.42;;
15693;SDS011;7947;48.834;9.132;2022-10-23T07:27:37;2.60;;;1.65;;
15693;SDS011;7947;48.834;9.132;2022-10-23T07:30:40;2.92;;;1.85;;
15693;SDS011;7947;48.834;9.132;2022-10-23T07:33:43;2.33;;;1.73;;
15693;SDS011;7947;48.834;9.132;2022-10-23T07:36:46;5.53;;;2.25;;
15693;SDS011;7947;48.834;9.132;2022-10-23T07:39:50;2.10;;;1.60;;
15693;SDS011;7947;48.834;9.132;2022-10-23T07:42:53;1.85;;;1.58;;
15693;SDS011;7947;48.834;9.132;2022-10-23T07:45:57;2.33;;;1.67;;
15693;SDS011;7947;48.834;9.132;2022-10-23T07:49:00;2.70;;;1.75;;
15693;SDS011;7947;48.834;9.132;2022-10-23T07:52:03;2.30;;;1.65;;
15693;SDS011;7947;48.834;9.132;2022-10-23T07:55:09;2.40;;;1.83;;
15693;SDS011;7947;48.834;9.132;2022-10-23T07:58:12;2.72;;;1.83;;
15693;SDS011;7947;48.834;9.132;2022-10-23T08:01:15;1.92;;;1.50;;
15693;SDS011;7947;48.834;9.132;2022-10-23T08:04:20;2.33;;;1.70;;
15693;SDS011;7947;48.834;9.132;2022-10-23T08:07:22;3.72;;;1.50;;
15693;SDS011;7947;48.834;9.132;2022-10-23T08:10:27;2.35;;;1.70;;
15693;SDS011;7947;48.834;9.132;2022-10-23T08:13:29;3.05;;;1.85;;
15693;SDS011;7947;48.834;9.132;2022-10-23T08:16:32;2.53;;;1.90;;
15693;SDS011;7947;48.834;9.132;2022-10-23T08:19:37;1.77;;;1.42;;
15693;SDS011;7947;48.834;9.132;2022-10-23T08:22:40;1.70;;;1.38;;
15693;SDS011;7947;48.834;9.132;2022-10-23T08:25:44;2.40;;;1.45;;
15693;SDS011;7947;48.834;9.132;2022-10-23T08:28:48;3.70;;;1.40;;
15693;SDS011;7947;48.834;9.132;2022-10-23T08:31:51;1.83;;;1.60;;
15693;SDS011;7947;48.834;9.132;2022-10-23T08:34:56;2.15;;;1.67;;
15693;SDS011;7947;48.834;9.132;2022-10-23T08:37:59;2.78;;;1.60;;
15693;SDS011;7947;48.834;9.132;2022-10-23T08:41:03;2.13;;;1.58;;
15693;SDS011;7947;48.834;9.132;2022-10-23T08:44:07;1.80;;;1.60;;
15693;SDS011;7947;48.834;9.132;2022-10-23T08:47:17;2.20;;;1.90;;
15693;SDS011;7947;48.834;9.132;2022-10-23T08:50:25;1.88;;;1.50;;
15693;SDS011;7947;48.834;9.132;2022-10-23T08:53:30;3.83;;;1.58;;
15693;SDS011;7947;48.834;9.132;2022-10-23T08:56:40;2.65;;;1.80;;
15693;SDS011;7947;48.834;9.132;2022-10-23T08:59:45;2.50;;;1.35;;
15693;SDS011;7947;48.834;9.132;2022-10-23T09:02:51;1.88;;;1.27;;
15693;SDS011;7947;48.834;9.132;2022-10-23T09:05:58;3.70;;;1.17;;
15693;SDS011;7947;48.834;9.132;2022-10-23T09:12:38;1.45;;;1.02;;
15693;SDS011;7947;48.834;9.132;2022-10-23T09:15:43;2.00;;;1.40;;
15693;SDS011;7947;48.834;9.132;2022-10-23T09:18:54;2.42;;;1.10;;
15693;SDS011;7947;48.834;9.132;2022-10-23T09:21:58;1.88;;;1.20;;
15693;SDS011;7947;48.834;9.132;2022-10-23T09:25:01;1.83;;;1.10;;
15693;SDS011;7947;48.834;9.132;2022-10-23T09:28:10;1.70;;;1.25;;
15693;SDS011;7947;48.834;9.132;2022-10-23T09:31:22;1.45;;;0.95;;
15693;SDS011;7947;48.834;9.132;2022-10-23T09:34:25;4.20;;;1.52;;
15693;SDS011;7947;48.834;9.132;2022-10-23T09:37:30;1.42;;;1.00;;
15693;SDS011;7947;48.834;9.132;2022-10-23T09:40:35;2.30;;;1.35;;
15693;SDS011;7947;48.834;9.132;2022-10-23T09:43:43;1.80;;;1.70;;
15693;SDS011;7947;48.834;9.132;2022-10-23T09:46:47;2.63;;;2.08;;
15693;SDS011;7947;48.834;9.132;2022-10-23T09:49:56;2.08;;;1.80;;
15693;SDS011;7947;48.834;9.132;2022-10-23T09:52:59;2.95;;;1.90;;
15693;SDS011;7947;48.834;9.132;2022-10-23T09:56:04;7.95;;;2.65;;
15693;SDS011;7947;48.834;9.132;2022-10-23T09:59:18;3.67;;;1.42;;
15693;SDS011;7947;48.834;9.132;2022-10-23T10:02:26;0.88;;;0.88;;
15693;SDS011;7947;48.834;9.132;2022-10-23T10:05:30;1.60;;;1.30;;
15693;SDS011;7947;48.834;9.132;2022-10-23T10:08:35;1.30;;;1.00;;
15693;SDS011;7947;48.834;9.132;2022-10-23T10:11:46;1.10;;;1.00;;
15693;SDS011;7947;48.834;9.132;2022-10-23T10:14:59;1.20;;;1.10;;
15693;SDS011;7947;48.834;9.132;2022-10-23T10:18:10;7.40;;;1.80;;
15693;SDS011;7947;48.834;9.132;2022-10-23T10:21:17;2.80;;;1.10;;
15693;SDS011;7947;48.834;9.132;2022-10-23T10:24:28;1.08;;;0.75;;
15693;SDS011;7947;48.834;9.132;2022-10-23T10:27:39;1.45;;;0.95;;
15693;SDS011;7947;48.834;9.132;2022-10-23T10:30:51;1.10;;;0.90;;
15693;SDS011;7947;48.834;9.132;2022-10-23T10:34:04;1.60;;;0.93;;
15693;SDS011;7947;48.834;9.132;2022-10-23T10:37:16;1.20;;;1.00;;
15693;SDS011;7947;48.834;9.132;2022-10-23T10:40:27;1.33;;;0.80;;
15693;SDS011;7947;48.834;9.132;2022-10-23T10:43:34;1.55;;;0.80;;
15693;SDS011;7947;48.834;9.132;2022-10-23T10:46:48;0.95;;;0.65;;
15693;SDS011;7947;48.834;9.132;2022-10-23T10:50:01;1.67;;;0.90;;
15693;SDS011;7947;48.834;9.132;2022-10-23T10:53:08;0.98;;;0.80;;
15693;SDS011;7947;48.834;9.132;2022-10-23T10:56:19;1.02;;;0.77;;
15693;SDS011;7947;48.834;9.132;2022-10-23T10:59:27;0.80;;;0.80;;
15693;SDS011;7947;48.834;9.132;2022-10-23T11:02:37;1.65;;;0.90;;
15693;SDS011;7947;48.834;9.132;2022-10-23T11:05:44;2.22;;;0.90;;
15693;SDS011;7947;48.834;9.132;2022-10-23T11:08:51;2.05;;;1.58;;
15693;SDS011;7947;48.834;9.132;2022-10-23T11:11:58;2.17;;;1.42;;
15693;SDS011;7947;48.834;9.132;2022-10-23T11:15:01;2.08;;;1.40;;
15693;SDS011;7947;48.834;9.132;2022-10-23T11:18:10;2.70;;;2.10;;
15693;SDS011;7947;48.834;9.132;2022-10-23T11:21:18;4.78;;;3.35;;
15693;SDS011;7947;48.834;9.132;2022-10-23T11:24:36;2.95;;;2.53;;
15693;SDS011;7947;48.834;9.132;2022-10-23T11:28:07;2.13;;;1.48;;
15693;SDS011;7947;48.834;9.132;2022-10-23T11:31:22;4.72;;;2.47;;
15693;SDS011;7947;48.834;9.132;2022-10-23T11:38:13;0.88;;;0.80;;
15693;SDS011;7947;48.834;9.132;2022-10-23T11:41:20;1.40;;;0.80;;
15693;SDS011;7947;48.834;9.132;2022-10-23T11:44:38;1.30;;;0.80;;
15693;SDS011;7947;48.834;9.132;2022-10-23T11:47:43;1.88;;;1.30;;
15693;SDS011;7947;48.834;9.132;2022-10-23T11:50:50;3.20;;;2.30;;
15693;SDS011;7947;48.834;9.132;2022-10-23T11:54:04;1.50;;;1.40;;
15693;SDS011;7947;48.834;9.132;2022-10-23T11:57:25;4.03;;;1.33;;
15693;SDS011;7947;48.834;9.132;2022-10-23T12:00:28;2.60;;;1.20;;
15693;SDS011;7947;48.834;9.132;2022-10-23T12:03:37;1.00;;;0.90;;
15693;SDS011;7947;48.834;9.132;2022-10-23T12:06:44;1.23;;;1.13;;
15693;SDS011;7947;48.834;9.132;2022-10-23T12:09:53;2.20;;;1.45;;
15693;SDS011;7947;48.834;9.132;2022-10-23T12:13:00;1.20;;;1.02;;
15693;SDS011;7947;48.834;9.132;2022-10-23T12:16:04;1.30;;;1.17;;
15693;SDS011;7947;48.834;9.132;2022-10-23T12:19:16;1.40;;;1.10;;
15693;SDS011;7947;48.834;9.132;2022-10-23T12:22:23;2.03;;;1.38;;
15693;SDS011;7947;48.834;9.132;2022-10-23T12:25:42;1.45;;;1.30;;
15693;SDS011;7947;48.834;9.132;2022-10-23T12:28:58;2.92;;;1.55;;
15693;SDS011;7947;48.834;9.132;2022-10-23T12:32:15;1.45;;;0.90;;
15693;SDS011;7947;48.834;9.132;2022-10-23T12:35:52;1.00;;;0.80;;
15693;SDS011;7947;48.834;9.132;2022-10-23T12:42:28;1.63;;;0.90;;
15693;SDS011;7947;48.834;9.132;2022-10-23T12:45:33;1.00;;;0.90;;
15693;SDS011;7947;48.834;9.132;2022-10-23T12:48:46;0.93;;;0.68;;
15693;SDS011;7947;48.834;9.132;2022-10-23T12:51:53;2.03;;;0.80;;
15693;SDS011;7947;48.834;9.132;2022-10-23T12:54:59;0.82;;;0.60;;
15693;SDS011;7947;48.834;9.132;2022-10-23T12:58:02;1.00;;;0.90;;
15693;SDS011;7947;48.834;9.132;2022-10-23T13:01:05;0.98;;;0.70;;
15693;SDS011;7947;48.834;9.132;2022-10-23T13:04:12;1.35;;;0.90;;
15693;SDS011;7947;48.834;9.132;2022-10-23T13:07:20;0.60;;;0.50;;
15693;SDS011;7947;48.834;9.132;2022-10-23T13:10:29;0.80;;;0.80;;
15693;SDS011;7947;48.834;9.132;2022-10-23T13:13:32;1.25;;;0.90;;
15693;SDS011;7947;48.834;9.132;2022-10-23T13:16:35;1.30;;;0.82;;
15693;SDS011;7947;48.834;9.132;2022-10-23T13:19:40;1.50;;;0.60;;
15693;SDS011;7947;48.834;9.132;2022-10-23T13:22:42;0.70;;;0.52;;
15693;SDS011;7947;48.834;9.132;2022-10-23T13:25:53;0.77;;;0.57;;
15693;SDS011;7947;48.834;9.132;2022-10-23T13:28:57;1.13;;;0.70;;
15693;SDS011;7947;48.834;9.132;2022-10-23T13:32:09;0.73;;;0.60;;
15693;SDS011;7947;48.834;9.132;2022-10-23T13:35:19;1.13;;;0.70;;
15693;SDS011;7947;48.834;9.132;2022-10-23T13:38:29;1.30;;;0.70;;
15693;SDS011;7947;48.834;9.132;2022-10-23T13:41:36;0.77;;;0.70;;
15693;SDS011;7947;48.834;9.132;2022-10-23T13:44:41;2.03;;;0.80;;
15693;SDS011;7947;48.834;9.132;2022-10-23T13:47:45;1.55;;;0.93;;
15693;SDS011;7947;48.834;9.132;2022-10-23T13:50:48;1.13;;;0.90;;
15693;SDS011;7947;48.834;9.132;2022-10-23T13:53:50;1.08;;;0.80;;
15693;SDS011;7947;48.834;9.132;2022-10-23T13:56:55;1.05;;;0.68;;
15693;SDS011;7947;48.834;9.132;2022-10-23T13:59:58;1.08;;;0.80;;
15693;SDS011;7947;48.834;9.132;2022-10-23T14:03:01;1.92;;;0.60;;
15693;SDS011;7947;48.834;9.132;2022-10-23T14:06:04;0.80;;;0.63;;
15693;SDS011;7947;48.834;9.132;2022-10-23T14:09:09;1.33;;;0.75;;
15693;SDS011;7947;48.834;9.132;2022-10-23T14:12:14;1.60;;;0.80;;
15693;SDS011;7947;48.834;9.132;2022-10-23T14:15:17;2.38;;;1.02;;
15693;SDS011;7947;48.834;9.132;2022-10-23T14:18:20;1.52;;;1.20;;
15693;SDS011;7947;48.834;9.132;2022-10-23T14:21:23;2.55;;;1.20;;
15693;SDS011;7947;48.834;9.132;2022-10-23T14:24:27;1.60;;;1.10;;
15693;SDS011;7947;48.834;9.132;2022-10-23T14:27:31;1.02;;;0.95;;
15693;SDS011;7947;48.834;9.132;2022-10-23T14:30:34;2.15;;;1.40;;
15693;SDS011;7947;48.834;9.132;2022-10-23T14:33:37;1.52;;;1.30;;
15693;SDS011;7947;48.834;9.132;2022-10-23T14:36:40;4.18;;;1.63;;
15693;SDS011;7947;48.834;9.132;2022-10-23T14:39:57;2.08;;;1.50;;
15693;SDS011;7947;48.834;9.132;2022-10-23T14:43:01;3.60;;;1.35;;
15693;SDS011;7947;48.834;9.132;2022-10-23T14:46:11;2.00;;;1.25;;
15693;SDS011;7947;48.834;9.132;2022-10-23T14:49:15;2.63;;;1.58;;
15693;SDS011;7947;48.834;9.132;2022-10-23T14:52:18;3.28;;;1.42;;
15693;SDS011;7947;48.834;9.132;2022-10-23T14:55:25;1.83;;;1.30;;
15693;SDS011;7947;48.834;9.132;2022-10-23T14:58:29;2.65;;;1.35;;
15693;SDS011;7947;48.834;9.132;2022-10-23T15:01:34;1.45;;;1.35;;
15693;SDS011;7947;48.834;9.132;2022-10-23T15:04:46;1.38;;;1.15;;
15693;SDS011;7947;48.834;9.132;2022-10-23T15:07:49;2.65;;;1.20;;
15693;SDS011;7947;48.834;9.132;2022-10-23T15:10:52;1.60;;;1.20;;
15693;SDS011;7947;48.834;9.132;2022-10-23T15:13:57;2.80;;;1.48;;
15693;SDS011;7947;48.834;9.132;2022-10-23T15:17:00;2.35;;;1.48;;
15693;SDS011;7947;48.834;9.132;2022-10-23T15:20:04;2.03;;;1.48;;
15693;SDS011;7947;48.834;9.132;2022-10-23T15:23:09;2.83;;;1.45;;
15693;SDS011;7947;48.834;9.132;2022-10-23T15:26:12;1.90;;;1.52;;
15693;SDS011;7947;48.834;9.132;2022-10-23T15:29:22;3.92;;;1.42;;
15693;SDS011;7947;48.834;9.132;2022-10-23T15:32:25;2.90;;;1.90;;
15693;SDS011;7947;48.834;9.132;2022-10-23T15:35:28;4.55;;;1.58;;
15693;SDS011;7947;48.834;9.132;2022-10-23T15:38:31;2.28;;;1.40;;
15693;SDS011;7947;48.834;9.132;2022-10-23T15:41:36;3.50;;;1.50;;
15693;SDS011;7947;48.834;9.132;2022-10-23T15:44:42;1.48;;;1.35;;
15693;SDS011;7947;48.834;9.132;2022-10-23T15:47:45;2.03;;;1.60;;
15693;SDS011;7947;48.834;9.132;2022-10-23T15:50:48;2.90;;;1.63;;
15693;SDS011;7947;48.834;9.132;2022-10-23T15:53:50;2.35;;;1.70;;
15693;SDS011;7947;48.834;9.132;2022-10-23T15:56:53;2.28;;;1.60;;
15693;SDS011;7947;48.834;9.132;2022-10-23T15:59:57;2.55;;;1.95;;
15693;SDS011;7947;48.834;9.132;2022-10-23T16:03:01;1.83;;;1.35;;
15693;SDS011;7947;48.834;9.132;2022-10-23T16:06:05;3.80;;;1.40;;
15693;SDS011;7947;48.834;9.132;2022-10-23T16:09:10;4.25;;;1.90;;
15693;SDS011;7947;48.834;9.132;2022-10-23T16:12:13;2.67;;;1.50;;
15693;SDS011;7947;48.834;9.132;2022-10-23T16:15:19;2.03;;;1.50;;
15693;SDS011;7947;48.834;9.132;2022-10-23T16:18:22;2.00;;;1.60;;
15693;SDS011;7947;48.834;9.132;2022-10-23T16:21:26;3.20;;;1.65;;
15693;SDS011;7947;48.834;9.132;2022-10-23T16:24:30;3.08;;;1.88;;
15693;SDS011;7947;48.834;9.132;2022-10-23T16:27:34;2.15;;;1.63;;
15693;SDS011;7947;48.834;9.132;2022-10-23T16:30:40;1.90;;;1.35;;
15693;SDS011;7947;48.834;9.132;2022-10-23T16:33:43;2.30;;;1.70;;
15693;SDS011;7947;48.834;9.132;2022-10-23T16:36:46;1.50;;;1.35;;
15693;SDS011;7947;48.834;9.132;2022-10-23T16:44:31;2.47;;;1.65;;
15693;SDS011;7947;48.834;9.132;2022-10-23T16:48:19;1.73;;;1.30;;
15693;SDS011;7947;48.834;9.132;2022-10-23T16:52:06;1.10;;;1.00;;
15693;SDS011;7947;48.834;9.132;2022-10-23T16:55:09;3.08;;;1.67;;
15693;SDS011;7947;48.834;9.132;2022-10-23T16:58:12;1.90;;;1.33;;
15693;SDS011;7947;48.834;9.132;2022-10-23T17:01:16;1.42;;;1.10;;
15693;SDS011;7947;48.834;9.132;2022-10-23T17:04:24;2.22;;;0.85;;
15693;SDS011;7947;48.834;9.132;2022-10-23T17:07:27;1.95;;;1.00;;
15693;SDS011;7947;48.834;9.132;2022-10-23T17:10:29;1.20;;;0.90;;
15693;SDS011;7947;48.834;9.132;2022-10-23T17:13:32;4.50;;;1.40;;
15693;SDS011;7947;48.834;9.132;2022-10-23T17:16:36;1.35;;;1.20;;
15693;SDS011;7947;48.834;9.132;2022-10-23T17:19:42;2.33;;;0.95;;
15693;SDS011;7947;48.834;9.132;2022-10-23T17:22:46;2.33;;;1.15;;
15693;SDS011;7947;48.834;9.132;2022-10-23T17:25:50;2.25;;;1.30;;
15693;SDS011;7947;48.834;9.132;2022-10-23T17:28:52;1.30;;;1.20;;
15693;SDS011;7947;48.834;9.132;2022-10-23T17:31:55;2.63;;;1.35;;
15693;SDS011;7947;48.834;9.132;2022-10-23T17:35:00;3.55;;;1.25;;
15693;SDS011;7947;48.834;9.132;2022-10-23T17:38:05;1.83;;;1.10;;
15693;SDS011;7947;48.834;9.132;2022-10-23T17:41:09;1.50;;;1.13;;
15693;SDS011;7947;48.834;9.132;2022-10-23T17:44:13;3.30;;;1.50;;
15693;SDS011;7947;48.834;9.132;2022-10-23T17:47:16;1.55;;;1.40;;
15693;SDS011;7947;48.834;9.132;2022-10-23T17:50:21;2.28;;;1.55;;
15693;SDS011;7947;48.834;9.132;2022-10-23T17:53:25;1.55;;;1.27;;
15693;SDS011;7947;48.834;9.132;2022-10-23T17:56:30;2.15;;;1.30;;
15693;SDS011;7947;48.834;9.132;2022-10-23T17:59:35;4.05;;;1.40;;
15693;SDS011;7947;48.834;9.132;2022-10-23T18:02:39;1.48;;;1.23;;
15693;SDS011;7947;48.834;9.132;2022-10-23T18:05:45;1.52;;;1.08;;
15693;SDS011;7947;48.834;9.132;2022-10-23T18:08:49;1.40;;;1.13;;
15693;SDS011;7947;48.834;9.132;2022-10-23T18:11:54;2.30;;;1.10;;
15693;SDS011;7947;48.834;9.132;2022-10-23T18:14:58;1.35;;;1.08;;
15693;SDS011;7947;48.834;9.132;2022-10-23T18:18:03;2.30;;;1.10;;
15693;SDS011;7947;48.834;9.132;2022-10-23T18:21:10;1.95;;;1.30;;
15693;SDS011;7947;48.834;9.132;2022-10-23T18:24:14;2.30;;;1.00;;
15693;SDS011;7947;48.834;9.132;2022-10-23T18:27:19;2.10;;;1.40;;
15693;SDS011;7947;48.834;9.132;2022-10-23T18:30:23;1.80;;;0.88;;
15693;SDS011;7947;48.834;9.132;2022-10-23T18:33:27;2.08;;;1.45;;
15693;SDS011;7947;48.834;9.132;2022-10-23T18:36:33;2.78;;;1.33;;
15693;SDS011;7947;48.834;9.132;2022-10-23T18:39:38;1.73;;;1.02;;
15693;SDS011;7947;48.834;9.132;2022-10-23T18:42:41;1.98;;;1.30;;
15693;SDS011;7947;48.834;9.132;2022-10-23T18:45:44;2.17;;;1.00;;
15693;SDS011;7947;48.834;9.132;2022-10-23T18:48:47;1.65;;;1.20;;
15693;SDS011;7947;48.834;9.132;2022-10-23T18:51:56;1.10;;;0.85;;
15693;SDS011;7947;48.834;9.132;2022-10-23T18:54:59;2.30;;;1.48;;
15693;SDS011;7947;48.834;9.132;2022-10-23T18:58:09;2.58;;;1.00;;
15693;SDS011;7947;48.834;9.132;2022-10-23T19:01:17;2.17;;;1.60;;
15693;SDS011;7947;48.834;9.132;2022-10-23T19:04:38;4.68;;;1.60;;
15693;SDS011;7947;48.834;9.132;2022-10-23T19:07:46;4.35;;;1.48;;
15693;SDS011;7947;48.834;9.132;2022-10-23T19:11:00;1.23;;;0.95;;
15693;SDS011;7947;48.834;9.132;2022-10-23T19:14:04;2.97;;;0.85;;
15693;SDS011;7947;48.834;9.132;2022-10-23T19:17:18;2.03;;;1.20;;